createdAt,value
2023-09-08T00:00:37.114Z,12.95
2023-09-08T00:03:04.569Z,9.15
2023-09-08T00:05:31.507Z,8.95
2023-09-08T00:07:58.798Z,11.20
2023-09-08T00:10:25.869Z,9.98
2023-09-08T00:12:52.750Z,11.23
2023-09-08T00:15:19.990Z,8.98
2023-09-08T00:17:48.896Z,10.38
2023-09-08T00:20:16.966Z,12.88
2023-09-08T00:22:44.048Z,9.13
2023-09-08T00:25:11.107Z,11.90
2023-09-08T00:27:38.296Z,8.05
2023-09-08T00:30:05.660Z,9.57
2023-09-08T00:32:33.207Z,9.52
2023-09-08T00:35:00.224Z,10.02
2023-09-08T00:37:27.249Z,8.55
2023-09-08T00:39:54.214Z,10.20
2023-09-08T00:42:21.473Z,9.27
2023-09-08T00:44:48.271Z,12.57
2023-09-08T00:47:15.347Z,9.35
2023-09-08T00:49:42.566Z,10.55
2023-09-08T00:52:09.546Z,11.20
2023-09-08T00:54:36.527Z,8.40
2023-09-08T00:57:06.510Z,10.77
2023-09-08T00:59:34.951Z,13.23
2023-09-08T01:02:02.333Z,11.32
2023-09-08T01:04:29.941Z,13.00
2023-09-08T01:06:57.827Z,13.13
2023-09-08T01:09:27.072Z,12.02
2023-09-08T01:11:56.713Z,10.77
2023-09-08T01:14:23.784Z,9.15
2023-09-08T01:16:50.917Z,9.85
2023-09-08T01:19:18.898Z,9.35
2023-09-08T01:21:53.404Z,12.48
2023-09-08T01:24:45.154Z,13.52
2023-09-08T01:27:15.358Z,8.45
2023-09-08T01:29:43.843Z,8.82
2023-09-08T01:32:11.711Z,8.63
2023-09-08T01:34:40.973Z,10.57
2023-09-08T01:37:08.785Z,10.68
2023-09-08T01:39:37.238Z,11.07
2023-09-08T01:42:04.743Z,10.88
2023-09-08T01:44:31.636Z,9.45
2023-09-08T01:46:59.563Z,9.35
2023-09-08T01:49:26.713Z,11.68
2023-09-08T01:51:54.197Z,12.00
2023-09-08T01:54:21.113Z,11.57
2023-09-08T01:56:55.577Z,11.45
2023-09-08T01:59:22.894Z,12.82
2023-09-08T02:01:49.851Z,11.98
2023-09-08T02:04:16.994Z,10.93
2023-09-08T02:06:44.296Z,12.88
2023-09-08T02:09:14.858Z,12.07
2023-09-08T02:11:43.262Z,11.32
2023-09-08T02:14:10.156Z,11.15
2023-09-08T02:16:37.067Z,11.90
2023-09-08T02:19:04.248Z,13.02
2023-09-08T02:21:31.733Z,13.68
2023-09-08T02:23:59.113Z,13.80
2023-09-08T02:26:27.578Z,12.32
2023-09-08T02:28:54.929Z,12.55
2023-09-08T02:31:22.399Z,12.05
2023-09-08T02:33:52.424Z,11.55
2023-09-08T02:36:26.659Z,14.32
2023-09-08T02:38:54.563Z,10.02
2023-09-08T02:41:23.645Z,11.80
2023-09-08T02:43:51.005Z,11.20
2023-09-08T02:46:18.080Z,13.20
2023-09-08T02:48:45.021Z,11.52
2023-09-08T02:51:13.348Z,14.63
2023-09-08T02:53:40.312Z,13.80
2023-09-08T02:56:07.310Z,11.85
2023-09-08T02:58:35.760Z,16.55
2023-09-08T03:01:16.584Z,11.02
2023-09-08T03:03:44.464Z,11.30
2023-09-08T03:06:12.349Z,11.60
2023-09-08T03:08:39.299Z,11.93
2023-09-08T03:11:06.821Z,16.13
2023-09-08T03:13:35.430Z,14.30
2023-09-08T03:16:09.838Z,13.23
2023-09-08T03:18:38.227Z,11.07
2023-09-08T03:21:15.263Z,15.63
2023-09-08T03:23:44.009Z,11.40
2023-09-08T03:26:11.663Z,13.07
2023-09-08T03:28:40.173Z,11.55
2023-09-08T03:31:07.808Z,12.32
2023-09-08T03:33:35.021Z,13.32
2023-09-08T03:36:02.589Z,10.75
2023-09-08T03:38:29.567Z,10.45
2023-09-08T03:40:56.862Z,15.18
2023-09-08T03:43:23.925Z,10.48
2023-09-08T03:45:51.270Z,12.38
2023-09-08T03:48:18.268Z,14.60
2023-09-08T03:50:46.559Z,12.52
2023-09-08T03:53:14.795Z,12.98
2023-09-08T03:55:41.746Z,14.43
2023-09-08T03:58:08.738Z,12.43
2023-09-08T04:00:38.127Z,13.43
2023-09-08T04:03:05.668Z,14.57
2023-09-08T04:05:32.997Z,12.63
2023-09-08T04:07:59.892Z,15.70
2023-09-08T04:10:27.605Z,11.88
2023-09-08T04:12:54.865Z,13.82
2023-09-08T04:15:22.448Z,14.88
2023-09-08T04:17:49.693Z,15.13
2023-09-08T04:20:16.855Z,17.27
2023-09-08T04:22:43.904Z,16.88
2023-09-08T04:25:12.571Z,14.13
2023-09-08T04:27:39.656Z,15.10
2023-09-08T04:30:07.825Z,17.10
2023-09-08T04:32:36.342Z,19.10
2023-09-08T04:35:04.322Z,17.15
2023-09-08T04:37:32.076Z,17.75
2023-09-08T04:39:59.338Z,13.30
2023-09-08T04:42:26.933Z,15.20
2023-09-08T04:44:53.939Z,17.02
2023-09-08T04:47:20.761Z,17.45
2023-09-08T04:49:47.796Z,15.63
2023-09-08T04:52:15.955Z,18.00
2023-09-08T04:54:43.281Z,18.13
2023-09-08T04:57:22.176Z,16.75
2023-09-08T04:59:51.055Z,19.08
2023-09-08T05:02:20.008Z,23.25
2023-09-08T05:04:47.266Z,18.90
2023-09-08T05:07:15.500Z,17.60
2023-09-08T05:09:44.116Z,16.02
2023-09-08T05:12:11.060Z,15.48
2023-09-08T05:14:38.306Z,18.17
2023-09-08T05:17:06.413Z,18.85
2023-09-08T05:19:33.398Z,14.10
2023-09-08T05:22:00.636Z,15.05
2023-09-08T05:24:28.378Z,15.20
2023-09-08T05:26:55.844Z,14.25
2023-09-08T05:29:22.904Z,16.75
2023-09-08T05:31:49.974Z,14.98
2023-09-08T05:34:17.548Z,16.27
2023-09-08T05:36:44.510Z,12.30
2023-09-08T05:39:12.431Z,17.15
2023-09-08T05:41:39.283Z,16.48
2023-09-08T05:44:06.476Z,12.50
2023-09-08T05:46:34.107Z,16.48
2023-09-08T05:49:01.202Z,19.35
2023-09-08T05:51:28.803Z,16.15
2023-09-08T05:53:56.174Z,13.75
2023-09-08T05:56:27.944Z,15.07
2023-09-08T05:58:54.892Z,11.70
2023-09-08T06:01:23.280Z,19.70
2023-09-08T06:03:50.347Z,14.63
2023-09-08T06:06:18.059Z,14.23
2023-09-08T06:08:44.911Z,14.00
2023-09-08T06:11:13.353Z,12.93
2023-09-08T06:13:40.423Z,12.60
2023-09-08T06:16:07.415Z,14.90
2023-09-08T06:18:41.383Z,16.80
2023-09-08T06:21:09.042Z,14.40
2023-09-08T06:23:37.902Z,14.45
2023-09-08T06:26:05.215Z,14.77
2023-09-08T06:28:32.742Z,15.85
2023-09-08T06:31:00.995Z,15.88
2023-09-08T06:33:28.532Z,14.77
2023-09-08T06:35:56.052Z,15.02
2023-09-08T06:38:22.957Z,14.55
2023-09-08T06:40:50.758Z,13.95
2023-09-08T06:43:17.824Z,14.10
2023-09-08T06:45:47.775Z,12.52
2023-09-08T06:48:15.028Z,11.77
2023-09-08T06:50:42.051Z,10.30
2023-09-08T06:53:33.818Z,12.77
2023-09-08T06:56:01.139Z,9.20
2023-09-08T06:58:28.206Z,10.80
2023-09-08T07:00:55.857Z,9.55
2023-09-08T07:03:24.194Z,11.35
2023-09-08T07:05:52.087Z,9.73
2023-09-08T07:08:21.720Z,11.55
2023-09-08T07:10:53.987Z,9.40
2023-09-08T07:13:21.024Z,10.82
2023-09-08T07:15:48.350Z,9.82
2023-09-08T07:18:15.721Z,7.88
2023-09-08T07:20:42.749Z,10.65
2023-09-08T07:23:09.799Z,9.45
2023-09-08T07:25:36.815Z,9.25
2023-09-08T07:28:03.886Z,7.47
2023-09-08T07:30:33.436Z,6.47
2023-09-08T07:33:00.581Z,9.55
2023-09-08T07:35:28.500Z,5.95
2023-09-08T07:37:55.955Z,9.70
2023-09-08T07:40:23.105Z,7.13
2023-09-08T07:42:50.126Z,9.45
2023-09-08T07:45:17.068Z,7.70
2023-09-08T07:47:46.604Z,7.13
2023-09-08T07:50:32.503Z,7.85
2023-09-08T07:52:59.587Z,7.05
2023-09-08T07:55:32.075Z,6.88
2023-09-08T07:58:00.058Z,8.18
2023-09-08T08:00:27.723Z,9.38
2023-09-08T08:02:57.008Z,9.52
2023-09-08T08:05:25.025Z,8.88
2023-09-08T08:07:52.284Z,6.20
2023-09-08T08:10:19.461Z,9.88
2023-09-08T08:12:46.506Z,6.57
2023-09-08T08:15:13.924Z,6.97
2023-09-08T08:17:41.684Z,8.02
2023-09-08T08:20:12.095Z,6.22
2023-09-08T08:22:39.454Z,7.72
2023-09-08T08:25:09.048Z,6.50
2023-09-08T08:27:37.492Z,6.18
2023-09-08T08:30:05.163Z,7.43
2023-09-08T08:32:35.054Z,5.97
2023-09-08T08:35:01.993Z,7.22
2023-09-08T08:37:29.016Z,7.05
2023-09-08T08:39:56.338Z,7.55
2023-09-08T08:42:23.836Z,7.47
2023-09-08T08:44:51.483Z,6.28
2023-09-08T08:47:20.639Z,6.72
2023-09-08T08:49:50.241Z,4.75
2023-09-08T08:52:18.880Z,6.25
2023-09-08T08:54:49.778Z,9.07
2023-09-08T08:57:17.333Z,10.63
2023-09-08T08:59:47.141Z,8.00
2023-09-08T09:02:15.620Z,5.32
2023-09-08T09:04:43.090Z,7.65
2023-09-08T09:07:10.067Z,8.30
2023-09-08T09:09:37.322Z,6.07
2023-09-08T09:12:04.503Z,6.93
2023-09-08T09:14:36.236Z,6.07
2023-09-08T09:17:09.768Z,6.75
2023-09-08T09:19:38.376Z,8.20
2023-09-08T09:22:05.457Z,9.30
2023-09-08T09:24:48.069Z,8.32
2023-09-08T09:27:15.314Z,5.50
2023-09-08T09:29:50.887Z,6.28
2023-09-08T09:32:25.030Z,9.90
2023-09-08T09:34:56.381Z,11.02
2023-09-08T09:37:23.959Z,7.38
2023-09-08T09:39:52.154Z,5.45
2023-09-08T09:42:19.533Z,4.85
2023-09-08T09:44:49.249Z,6.13
2023-09-08T09:47:17.792Z,9.50
2023-09-08T09:49:46.841Z,8.60
2023-09-08T09:52:15.166Z,6.45
2023-09-08T09:54:43.641Z,8.57
2023-09-08T09:57:17.087Z,8.00
2023-09-08T09:59:44.615Z,7.10
2023-09-08T10:02:15.061Z,6.68
2023-09-08T10:04:43.919Z,5.40
2023-09-08T10:07:11.383Z,7.57
2023-09-08T10:09:38.346Z,7.30
2023-09-08T10:12:07.062Z,5.53
2023-09-08T10:14:40.185Z,10.23
2023-09-08T10:17:09.560Z,6.00
2023-09-08T10:19:43.616Z,4.65
2023-09-08T10:22:16.138Z,9.10
2023-09-08T10:24:46.577Z,10.88
2023-09-08T10:27:14.348Z,6.82
2023-09-08T10:29:41.262Z,6.13
2023-09-08T10:32:10.276Z,6.15
2023-09-08T10:34:38.214Z,11.55
2023-09-08T10:37:22.687Z,6.38
2023-09-08T10:39:49.789Z,6.60
2023-09-08T10:42:20.362Z,8.57
2023-09-08T10:44:53.255Z,5.40
2023-09-08T10:47:24.019Z,7.20
2023-09-08T10:49:56.138Z,5.32
2023-09-08T10:52:28.705Z,8.15
2023-09-08T10:54:59.534Z,7.70
2023-09-08T10:57:26.981Z,5.93
2023-09-08T11:00:02.474Z,9.63
2023-09-08T11:02:44.214Z,7.20
2023-09-08T11:05:15.156Z,7.95
2023-09-08T11:07:43.963Z,10.25
2023-09-08T11:10:12.370Z,6.03
2023-09-08T11:12:39.494Z,7.45
2023-09-08T11:15:09.796Z,10.27
2023-09-08T11:17:43.671Z,7.13
2023-09-08T11:20:12.082Z,10.88
2023-09-08T11:22:40.692Z,8.10
2023-09-08T11:25:11.414Z,8.20
2023-09-08T11:27:41.354Z,8.30
2023-09-08T11:30:09.737Z,4.57
2023-09-08T11:32:37.805Z,8.10
2023-09-08T11:35:10.926Z,6.65
2023-09-08T11:37:59.335Z,8.25
2023-09-08T11:40:26.403Z,5.65
2023-09-08T11:42:55.076Z,9.05
2023-09-08T11:45:24.562Z,6.38
2023-09-08T11:47:55.360Z,4.78
2023-09-08T11:50:24.590Z,7.07
2023-09-08T11:52:53.630Z,11.68
2023-09-08T11:55:23.036Z,8.00
2023-09-08T11:57:56.294Z,5.50
2023-09-08T12:00:24.753Z,6.13
2023-09-08T12:02:51.940Z,6.85
2023-09-08T12:05:27.291Z,14.07
2023-09-08T12:07:59.533Z,7.10
2023-09-08T12:10:27.112Z,8.25
2023-09-08T12:12:56.898Z,5.57
2023-09-08T12:15:36.801Z,6.90
2023-09-08T12:18:12.610Z,5.63
2023-09-08T12:20:41.452Z,12.77
2023-09-08T12:23:28.649Z,5.20
2023-09-08T12:25:58.558Z,6.20
2023-09-08T12:28:31.925Z,12.80
2023-09-08T12:30:59.351Z,5.55
2023-09-08T12:33:30.348Z,5.38
2023-09-08T12:35:57.388Z,6.22
2023-09-08T12:38:24.595Z,5.57
2023-09-08T12:40:52.226Z,5.55
2023-09-08T12:43:26.859Z,10.75
2023-09-08T12:45:55.374Z,6.13
2023-09-08T12:48:23.915Z,10.75
2023-09-08T12:50:53.124Z,4.80
2023-09-08T12:53:20.083Z,8.35
2023-09-08T12:55:47.815Z,8.35
2023-09-08T12:58:16.175Z,8.32
2023-09-08T13:00:45.066Z,6.45
2023-09-08T13:03:13.325Z,9.82
2023-09-08T13:05:40.741Z,5.90
2023-09-08T13:08:08.031Z,5.47
2023-09-08T13:10:35.146Z,7.40
2023-09-08T13:13:02.143Z,6.75
2023-09-08T13:15:29.459Z,6.40
2023-09-08T13:17:57.064Z,9.07
2023-09-08T13:20:24.204Z,6.57
2023-09-08T13:22:51.235Z,6.75
2023-09-08T13:25:18.275Z,5.85
2023-09-08T13:27:45.248Z,6.20
2023-09-08T13:30:14.305Z,6.80
2023-09-08T13:32:41.708Z,8.18
2023-09-08T13:35:09.180Z,8.80
2023-09-08T13:37:39.351Z,7.05
2023-09-08T13:40:09.056Z,4.85
2023-09-08T13:42:36.606Z,6.55
2023-09-08T13:45:04.510Z,6.00
2023-09-08T13:47:34.065Z,7.47
2023-09-08T13:50:03.171Z,4.13
2023-09-08T13:52:33.665Z,6.28
2023-09-08T13:55:30.285Z,6.10
2023-09-08T13:57:55.897Z,6.10
2023-09-08T14:00:25.038Z,6.20
2023-09-08T14:02:58.691Z,9.80
2023-09-08T14:05:28.407Z,4.50
2023-09-08T14:08:05.260Z,5.25
2023-09-08T14:13:05.915Z,6.38
2023-09-08T14:15:33.047Z,6.80
2023-09-08T14:17:59.999Z,4.13
2023-09-08T14:20:27.025Z,9.77
2023-09-08T14:22:54.123Z,5.32
2023-09-08T14:25:21.056Z,6.00
2023-09-08T14:27:47.987Z,5.22
2023-09-08T14:30:14.882Z,5.38
2023-09-08T14:32:41.917Z,7.60
2023-09-08T14:35:09.787Z,5.07
2023-09-08T14:37:36.614Z,4.53
2023-09-08T14:40:04.513Z,4.53
2023-09-08T14:42:34.285Z,4.30
2023-09-08T14:45:04.587Z,3.80
2023-09-08T14:47:31.589Z,5.30
2023-09-08T14:49:58.690Z,7.25
2023-09-08T14:52:25.626Z,4.25
2023-09-08T14:54:53.264Z,4.25
2023-09-08T14:57:20.255Z,5.90
2023-09-08T14:59:47.411Z,5.25
2023-09-08T15:02:15.510Z,6.00
2023-09-08T15:04:42.496Z,7.43
2023-09-08T15:07:09.439Z,4.10
2023-09-08T15:09:36.913Z,6.32
2023-09-08T15:12:04.485Z,4.38
2023-09-08T15:14:31.350Z,5.15
2023-09-08T15:16:58.360Z,4.75
2023-09-08T15:19:25.385Z,8.73
2023-09-08T15:21:52.397Z,7.35
2023-09-08T15:24:19.262Z,5.35
2023-09-08T15:26:47.646Z,5.35
2023-09-08T15:29:14.535Z,8.27
2023-09-08T15:31:44.047Z,5.88
2023-09-08T15:34:12.748Z,7.00
2023-09-08T15:36:39.662Z,8.90
2023-09-08T15:39:06.854Z,6.47
2023-09-08T15:41:33.770Z,5.18
2023-09-08T15:44:00.645Z,6.68
2023-09-08T15:46:27.581Z,6.95
2023-09-08T15:48:54.688Z,5.18
2023-09-08T15:51:21.708Z,5.38
2023-09-08T15:53:48.865Z,6.07
2023-09-08T15:56:16.054Z,6.20
2023-09-08T15:58:43.048Z,5.13
2023-09-08T16:01:10.173Z,4.75
2023-09-08T16:03:37.590Z,5.68
2023-09-08T16:06:05.042Z,5.32
2023-09-08T16:08:33.118Z,6.93
2023-09-08T16:11:02.474Z,5.18
2023-09-08T16:13:32.442Z,4.40
2023-09-08T16:15:59.376Z,6.70
2023-09-08T16:18:26.580Z,9.25
2023-09-08T16:20:53.483Z,6.35
2023-09-08T16:23:20.479Z,5.97
2023-09-08T16:25:47.297Z,7.13
2023-09-08T16:28:14.266Z,4.47
2023-09-08T16:30:41.563Z,5.25
2023-09-08T16:33:08.446Z,5.03
2023-09-08T16:35:36.976Z,8.48
2023-09-08T16:38:04.091Z,7.93
2023-09-08T16:40:31.138Z,14.00
2023-09-08T16:42:59.667Z,7.35
2023-09-08T16:45:26.504Z,14.20
2023-09-08T16:47:53.418Z,7.28
2023-09-08T16:50:20.359Z,10.95
2023-09-08T16:52:47.437Z,5.95
2023-09-08T16:55:15.354Z,21.23
2023-09-08T16:57:42.295Z,12.27
2023-09-08T17:00:09.934Z,8.38
2023-09-08T17:02:38.019Z,6.65
2023-09-08T17:05:05.685Z,9.73
2023-09-08T17:07:32.853Z,9.95
2023-09-08T17:09:59.872Z,9.15
2023-09-08T17:12:27.641Z,6.35
2023-09-08T17:14:55.200Z,7.18
2023-09-08T17:17:22.297Z,6.00
2023-09-08T17:19:49.255Z,8.23
2023-09-08T17:22:16.238Z,6.75
2023-09-08T17:24:43.498Z,6.20
2023-09-08T17:27:10.478Z,6.47
2023-09-08T17:29:37.526Z,6.32
2023-09-08T17:32:04.811Z,8.23
2023-09-08T17:34:31.748Z,6.78
2023-09-08T17:37:01.355Z,5.43
2023-09-08T17:39:28.734Z,7.70
2023-09-08T17:41:57.557Z,9.23
2023-09-08T17:44:24.589Z,7.78
2023-09-08T17:46:51.701Z,8.10
2023-09-08T17:49:18.785Z,12.23
2023-09-08T17:51:45.701Z,8.40
2023-09-08T17:54:12.662Z,10.82
2023-09-08T17:56:39.692Z,8.00
2023-09-08T17:59:06.879Z,11.73
2023-09-08T18:01:34.908Z,9.32
2023-09-08T18:04:02.227Z,12.02
2023-09-08T18:06:29.266Z,6.82
2023-09-08T18:08:57.168Z,9.82
2023-09-08T18:11:25.681Z,7.63
2023-09-08T18:13:52.556Z,7.10
2023-09-08T18:16:19.596Z,7.13
2023-09-08T18:18:47.014Z,8.80
2023-09-08T18:21:14.952Z,12.77
2023-09-08T18:23:42.409Z,12.15
2023-09-08T18:26:09.602Z,12.25
2023-09-08T18:28:37.044Z,12.73
2023-09-08T18:31:04.046Z,11.52
2023-09-08T18:33:31.537Z,10.50
2023-09-08T18:35:59.008Z,16.23
2023-09-08T18:38:29.180Z,7.57
2023-09-08T18:40:56.175Z,9.35
2023-09-08T18:43:23.067Z,8.52
2023-09-08T18:45:50.495Z,9.85
2023-09-08T18:48:17.679Z,16.75
2023-09-08T18:50:44.624Z,10.35
2023-09-08T18:53:11.578Z,10.18
2023-09-08T18:55:38.632Z,10.27
2023-09-08T18:58:06.568Z,11.15
2023-09-08T19:00:33.755Z,13.57
2023-09-08T19:03:01.574Z,11.85
2023-09-08T19:05:29.181Z,14.52
2023-09-08T19:07:56.160Z,14.63
2023-09-08T19:10:23.140Z,10.30
2023-09-08T19:12:50.034Z,9.80
2023-09-08T19:15:18.381Z,9.65
2023-09-08T19:17:46.687Z,11.82
2023-09-08T19:20:13.761Z,11.98
2023-09-08T19:22:40.640Z,9.93
2023-09-08T19:25:09.059Z,11.93
2023-09-08T19:27:39.398Z,12.27
2023-09-08T19:30:12.150Z,11.05
2023-09-08T19:35:08.205Z,11.65
2023-09-08T19:37:35.464Z,9.25
2023-09-08T19:40:02.395Z,11.60
2023-09-08T19:42:29.487Z,10.18
2023-09-08T19:44:56.407Z,12.82
2023-09-08T19:47:23.386Z,10.85
2023-09-08T19:49:50.800Z,12.13
2023-09-08T19:52:18.565Z,11.50
2023-09-08T19:54:45.957Z,11.38
2023-09-08T19:57:12.976Z,10.77
2023-09-08T19:59:43.303Z,12.65
2023-09-08T20:02:11.191Z,12.88
2023-09-08T20:04:38.766Z,16.33
2023-09-08T20:07:06.093Z,14.52
2023-09-08T20:09:33.327Z,13.07
2023-09-08T20:12:01.457Z,11.00
2023-09-08T20:14:28.559Z,14.43
2023-09-08T20:16:55.464Z,13.82
2023-09-08T20:19:22.381Z,13.65
2023-09-08T20:21:49.273Z,12.95
2023-09-08T20:24:16.276Z,11.10
2023-09-08T20:26:43.392Z,13.60
2023-09-08T20:29:10.579Z,14.50
2023-09-08T20:31:37.495Z,15.18
2023-09-08T20:34:04.654Z,12.43
2023-09-08T20:36:31.562Z,14.77
2023-09-08T20:38:58.427Z,12.73
2023-09-08T20:41:25.322Z,13.18
2023-09-08T20:43:52.410Z,12.57
2023-09-08T20:46:19.529Z,13.73
2023-09-08T20:48:46.827Z,10.63
2023-09-08T20:51:14.797Z,12.18
2023-09-08T20:53:42.975Z,9.15
2023-09-08T20:56:13.875Z,15.93
2023-09-08T20:58:42.262Z,12.40
2023-09-08T21:01:10.156Z,13.10
2023-09-08T21:03:37.899Z,11.82
2023-09-08T21:06:05.293Z,12.75
2023-09-08T21:08:32.153Z,12.25
2023-09-08T21:10:59.388Z,13.45
2023-09-08T21:13:27.007Z,9.50
2023-09-08T21:15:54.069Z,10.50
2023-09-08T21:18:21.406Z,12.35
2023-09-08T21:20:49.511Z,12.40
2023-09-08T21:23:18.997Z,10.35
2023-09-08T21:25:45.916Z,9.15
2023-09-08T21:28:13.307Z,10.52
2023-09-08T21:30:40.338Z,10.20
2023-09-08T21:33:07.559Z,14.57
2023-09-08T21:35:34.662Z,12.85
2023-09-08T21:38:01.746Z,12.40
2023-09-08T21:40:28.899Z,12.57
2023-09-08T21:42:55.938Z,11.55
2023-09-08T21:45:22.915Z,10.65
2023-09-08T21:47:51.674Z,13.98
2023-09-08T21:50:19.102Z,11.70
2023-09-08T21:52:46.464Z,9.98
2023-09-08T21:55:13.727Z,12.05
2023-09-08T21:57:41.847Z,11.65
2023-09-08T22:00:12.768Z,10.23
2023-09-08T22:02:39.888Z,8.90
2023-09-08T22:05:07.492Z,10.35
2023-09-08T22:07:34.656Z,10.00
2023-09-08T22:10:01.761Z,11.00
2023-09-08T22:12:28.714Z,12.77
2023-09-08T22:14:56.850Z,10.27
2023-09-08T22:17:24.025Z,9.40
2023-09-08T22:19:54.312Z,10.85
2023-09-08T22:22:21.257Z,10.55
2023-09-08T22:24:48.065Z,12.02
2023-09-08T22:27:15.813Z,9.88
2023-09-08T22:29:42.932Z,12.07
2023-09-08T22:32:09.777Z,14.68
2023-09-08T22:34:36.810Z,11.38
2023-09-08T22:37:03.981Z,11.60
2023-09-08T22:39:30.825Z,10.05
2023-09-08T22:41:57.922Z,13.07
2023-09-08T22:44:24.850Z,12.55
2023-09-08T22:46:51.794Z,12.48
2023-09-08T22:49:18.776Z,9.00
2023-09-08T22:51:45.775Z,13.05
2023-09-08T22:54:12.824Z,12.48
2023-09-08T22:56:39.786Z,15.90
2023-09-08T22:59:06.786Z,9.82
2023-09-08T23:01:33.878Z,8.02
2023-09-08T23:04:00.958Z,10.52
2023-09-08T23:06:28.067Z,9.77
2023-09-08T23:08:54.952Z,11.55
2023-09-08T23:11:22.447Z,8.88
2023-09-08T23:13:49.574Z,9.00
2023-09-08T23:16:16.923Z,10.20
2023-09-08T23:18:44.306Z,9.55
2023-09-08T23:21:11.383Z,9.00
2023-09-08T23:23:40.511Z,8.40
2023-09-08T23:26:07.398Z,11.00
2023-09-08T23:28:34.706Z,10.35
2023-09-08T23:31:02.502Z,8.90
2023-09-08T23:33:29.562Z,11.70
2023-09-08T23:35:56.628Z,11.63
2023-09-08T23:38:23.477Z,10.52
2023-09-08T23:40:50.486Z,13.38
2023-09-08T23:43:17.390Z,15.18
2023-09-08T23:45:47.560Z,12.93
2023-09-08T23:48:14.589Z,9.32
2023-09-08T23:50:54.878Z,10.55
2023-09-08T23:53:22.134Z,14.20
2023-09-08T23:55:50.838Z,12.25
2023-09-08T23:58:20.558Z,11.75
